sensor_id;sensor_type;location;lat;lon;timestamp;pressure;altitude;pressure_sealevel;temperature;humidity
51829;BME280;37881;48.024;8.774;2024-02-16T00:02:14;93833.75;;;6.63;100.00
51829;BME280;37881;48.024;8.774;2024-02-16T00:04:42;93831.81;;;6.71;100.00
51829;BME280;37881;48.024;8.774;2024-02-16T00:07:09;93823.63;;;6.71;100.00
51829;BME280;37881;48.024;8.774;2024-02-16T00:09:36;93836.06;;;6.72;100.00
51829;BME280;37881;48.024;8.774;2024-02-16T00:12:03;93842.28;;;6.79;100.00
51829;BME280;37881;48.024;8.774;2024-02-16T00:14:30;93838.78;;;6.86;100.00
51829;BME280;37881;48.024;8.774;2024-02-16T00:16:56;93836.44;;;6.81;100.00
51829;BME280;37881;48.024;8.774;2024-02-16T00:19:23;93836.03;;;6.90;100.00
51829;BME280;37881;48.024;8.774;2024-02-16T00:21:50;93831.38;;;6.90;100.00
51829;BME280;37881;48.024;8.774;2024-02-16T00:24:17;93830.22;;;6.80;100.00
51829;BME280;37881;48.024;8.774;2024-02-16T00:26:44;93832.16;;;6.80;100.00
51829;BME280;37881;48.024;8.774;2024-02-16T00:29:12;93822.47;;;6.68;100.00
51829;BME280;37881;48.024;8.774;2024-02-16T00:31:38;93826.38;;;6.56;100.00
51829;BME280;37881;48.024;8.774;2024-02-16T00:34:06;93817.44;;;6.49;100.00
51829;BME280;37881;48.024;8.774;2024-02-16T00:36:33;93823.25;;;6.47;100.00
51829;BME280;37881;48.024;8.774;2024-02-16T00:39:01;93811.94;;;6.56;100.00
51829;BME280;37881;48.024;8.774;2024-02-16T00:41:27;93804.91;;;6.69;100.00
51829;BME280;37881;48.024;8.774;2024-02-16T00:43:54;93808.41;;;6.77;100.00
51829;BME280;37881;48.024;8.774;2024-02-16T00:46:23;93801.41;;;6.72;100.00
51829;BME280;37881;48.024;8.774;2024-02-16T00:48:51;93797.50;;;6.73;100.00
51829;BME280;37881;48.024;8.774;2024-02-16T00:51:18;93799.84;;;6.71;100.00
51829;BME280;37881;48.024;8.774;2024-02-16T00:53:45;93794.81;;;6.63;100.00
51829;BME280;37881;48.024;8.774;2024-02-16T00:56:13;93793.28;;;6.54;100.00
51829;BME280;37881;48.024;8.774;2024-02-16T00:58:40;93802.22;;;6.51;100.00
51829;BME280;37881;48.024;8.774;2024-02-16T01:01:09;93801.47;;;6.54;100.00
51829;BME280;37881;48.024;8.774;2024-02-16T01:03:38;93804.94;;;6.48;100.00
51829;BME280;37881;48.024;8.774;2024-02-16T01:06:06;93809.66;;;6.40;100.00
51829;BME280;37881;48.024;8.774;2024-02-16T01:08:33;93820.56;;;6.29;100.00
51829;BME280;37881;48.024;8.774;2024-02-16T01:10:59;93816.28;;;6.25;100.00
51829;BME280;37881;48.024;8.774;2024-02-16T01:13:26;93812.78;;;6.10;100.00
51829;BME280;37881;48.024;8.774;2024-02-16T01:15:53;93814.28;;;5.93;100.00
51829;BME280;37881;48.024;8.774;2024-02-16T01:18:21;93812.78;;;6.03;100.00
51829;BME280;37881;48.024;8.774;2024-02-16T01:20:47;93816.28;;;6.14;100.00
51829;BME280;37881;48.024;8.774;2024-02-16T01:23:14;93815.50;;;6.24;100.00
51829;BME280;37881;48.024;8.774;2024-02-16T01:25:41;93803.44;;;6.29;100.00
51829;BME280;37881;48.024;8.774;2024-02-16T01:28:08;93817.84;;;6.33;100.00
51829;BME280;37881;48.024;8.774;2024-02-16T01:30:35;93802.63;;;6.35;100.00
51829;BME280;37881;48.024;8.774;2024-02-16T01:33:03;93803.03;;;6.41;100.00
51829;BME280;37881;48.024;8.774;2024-02-16T01:35:32;93802.66;;;6.03;100.00
51829;BME280;37881;48.024;8.774;2024-02-16T01:37:59;93804.59;;;6.24;100.00
51829;BME280;37881;48.024;8.774;2024-02-16T01:40:26;93800.69;;;6.39;100.00
51829;BME280;37881;48.024;8.774;2024-02-16T01:42:53;93794.06;;;6.48;100.00
51829;BME280;37881;48.024;8.774;2024-02-16T01:45:20;93803.38;;;6.54;100.00
51829;BME280;37881;48.024;8.774;2024-02-16T01:47:51;93804.56;;;6.56;100.00
51829;BME280;37881;48.024;8.774;2024-02-16T01:50:21;93799.13;;;6.56;100.00
51829;BME280;37881;48.024;8.774;2024-02-16T01:52:49;93801.06;;;6.45;100.00
51829;BME280;37881;48.024;8.774;2024-02-16T01:55:16;93813.53;;;6.53;100.00
51829;BME280;37881;48.024;8.774;2024-02-16T01:57:44;93810.41;;;6.55;100.00
51829;BME280;37881;48.024;8.774;2024-02-16T02:00:13;93815.09;;;6.47;100.00
51829;BME280;37881;48.024;8.774;2024-02-16T02:02:45;93807.28;;;6.46;100.00
51829;BME280;37881;48.024;8.774;2024-02-16T02:05:13;93816.63;;;6.52;100.00
51829;BME280;37881;48.024;8.774;2024-02-16T02:07:42;93819.75;;;6.57;100.00
51829;BME280;37881;48.024;8.774;2024-02-16T02:10:10;93813.91;;;6.63;100.00
51829;BME280;37881;48.024;8.774;2024-02-16T02:12:39;93810.78;;;6.64;100.00
51829;BME280;37881;48.024;8.774;2024-02-16T02:15:07;93806.09;;;6.61;100.00
51829;BME280;37881;48.024;8.774;2024-02-16T02:17:34;93818.97;;;6.60;100.00
51829;BME280;37881;48.024;8.774;2024-02-16T02:20:02;93808.88;;;6.50;100.00
51829;BME280;37881;48.024;8.774;2024-02-16T02:22:30;93819.75;;;6.65;100.00
51829;BME280;37881;48.024;8.774;2024-02-16T02:24:57;93816.59;;;6.70;100.00
51829;BME280;37881;48.024;8.774;2024-02-16T02:27:24;93816.97;;;6.75;100.00
51829;BME280;37881;48.024;8.774;2024-02-16T02:29:51;93814.69;;;6.42;100.00
51829;BME280;37881;48.024;8.774;2024-02-16T02:32:18;93812.38;;;6.36;100.00
51829;BME280;37881;48.024;8.774;2024-02-16T02:34:45;93809.66;;;6.22;100.00
51829;BME280;37881;48.024;8.774;2024-02-16T02:37:12;93797.22;;;6.10;100.00
51829;BME280;37881;48.024;8.774;2024-02-16T02:39:39;93785.53;;;5.99;100.00
51829;BME280;37881;48.024;8.774;2024-02-16T02:42:06;93804.59;;;5.95;100.00
51829;BME280;37881;48.024;8.774;2024-02-16T02:44:35;93786.28;;;5.85;100.00
51829;BME280;37881;48.024;8.774;2024-02-16T02:47:01;93783.16;;;5.87;100.00
51829;BME280;37881;48.024;8.774;2024-02-16T02:49:28;93782.00;;;5.80;100.00
51829;BME280;37881;48.024;8.774;2024-02-16T02:51:55;93782.75;;;5.56;100.00
51829;BME280;37881;48.024;8.774;2024-02-16T02:54:22;93776.53;;;5.59;100.00
51829;BME280;37881;48.024;8.774;2024-02-16T02:56:49;93785.44;;;5.49;100.00
51829;BME280;37881;48.024;8.774;2024-02-16T02:59:16;93788.19;;;5.52;100.00
51829;BME280;37881;48.024;8.774;2024-02-16T03:01:42;93786.63;;;5.51;100.00
51829;BME280;37881;48.024;8.774;2024-02-16T03:04:09;93783.91;;;5.58;100.00
51829;BME280;37881;48.024;8.774;2024-02-16T03:06:36;93779.63;;;5.50;100.00
51829;BME280;37881;48.024;8.774;2024-02-16T03:09:03;93770.28;;;5.33;100.00
51829;BME280;37881;48.024;8.774;2024-02-16T03:11:30;93773.81;;;5.52;100.00
51829;BME280;37881;48.024;8.774;2024-02-16T03:13:57;93781.59;;;5.50;100.00
51829;BME280;37881;48.024;8.774;2024-02-16T03:16:23;93771.06;;;5.45;100.00
51829;BME280;37881;48.024;8.774;2024-02-16T03:18:50;93777.66;;;5.47;100.00
51829;BME280;37881;48.024;8.774;2024-02-16T03:21:17;93779.59;;;5.43;100.00
51829;BME280;37881;48.024;8.774;2024-02-16T03:23:44;93779.63;;;5.39;100.00
51829;BME280;37881;48.024;8.774;2024-02-16T03:26:18;93788.56;;;5.44;100.00
51829;BME280;37881;48.024;8.774;2024-02-16T03:28:46;93793.97;;;5.26;100.00
51829;BME280;37881;48.024;8.774;2024-02-16T03:31:17;93788.81;;;5.03;100.00
51829;BME280;37881;48.024;8.774;2024-02-16T03:33:44;93791.59;;;5.13;100.00
51829;BME280;37881;48.024;8.774;2024-02-16T03:36:11;93792.78;;;5.23;100.00
51829;BME280;37881;48.024;8.774;2024-02-16T03:38:42;93788.16;;;5.34;100.00
51829;BME280;37881;48.024;8.774;2024-02-16T03:41:20;93794.38;;;5.42;100.00
51829;BME280;37881;48.024;8.774;2024-02-16T03:43:48;93792.84;;;5.45;100.00
51829;BME280;37881;48.024;8.774;2024-02-16T03:46:15;93794.38;;;5.42;100.00
51829;BME280;37881;48.024;8.774;2024-02-16T03:48:42;93797.91;;;5.50;100.00
51829;BME280;37881;48.024;8.774;2024-02-16T03:51:09;93808.38;;;5.51;100.00
51829;BME280;37881;48.024;8.774;2024-02-16T03:53:36;93799.84;;;5.56;100.00
51829;BME280;37881;48.024;8.774;2024-02-16T03:56:03;93805.69;;;5.55;100.00
51829;BME280;37881;48.024;8.774;2024-02-16T03:58:32;93812.69;;;5.52;100.00
51829;BME280;37881;48.024;8.774;2024-02-16T04:00:59;93809.16;;;5.45;100.00
51829;BME280;37881;48.024;8.774;2024-02-16T04:03:26;93797.88;;;5.35;100.00
51829;BME280;37881;48.024;8.774;2024-02-16T04:05:53;93802.94;;;5.44;100.00
51829;BME280;37881;48.024;8.774;2024-02-16T04:08:20;93809.94;;;5.49;100.00
51829;BME280;37881;48.024;8.774;2024-02-16T04:10:47;93806.84;;;5.50;100.00
51829;BME280;37881;48.024;8.774;2024-02-16T04:13:14;93811.13;;;5.58;100.00
51829;BME280;37881;48.024;8.774;2024-02-16T04:15:41;93808.78;;;5.57;100.00
51829;BME280;37881;48.024;8.774;2024-02-16T04:18:08;93815.03;;;5.54;100.00
51829;BME280;37881;48.024;8.774;2024-02-16T04:20:36;93814.59;;;5.45;100.00
51829;BME280;37881;48.024;8.774;2024-02-16T04:23:04;93816.56;;;5.48;100.00
51829;BME280;37881;48.024;8.774;2024-02-16T04:25:31;93820.03;;;5.41;100.00
51829;BME280;37881;48.024;8.774;2024-02-16T04:27:57;93811.09;;;5.40;100.00
51829;BME280;37881;48.024;8.774;2024-02-16T04:30:24;93817.34;;;5.48;100.00
51829;BME280;37881;48.024;8.774;2024-02-16T04:32:51;93804.91;;;5.44;100.00
51829;BME280;37881;48.024;8.774;2024-02-16T04:35:18;93803.72;;;5.41;100.00
51829;BME280;37881;48.024;8.774;2024-02-16T04:37:45;93819.63;;;5.39;100.00
51829;BME280;37881;48.024;8.774;2024-02-16T04:40:12;93822.34;;;5.32;100.00
51829;BME280;37881;48.024;8.774;2024-02-16T04:42:39;93817.66;;;5.22;100.00
51829;BME280;37881;48.024;8.774;2024-02-16T04:45:12;93805.94;;;5.03;100.00
51829;BME280;37881;48.024;8.774;2024-02-16T04:47:39;93804.00;;;5.07;100.00
51829;BME280;37881;48.024;8.774;2024-02-16T04:50:07;93811.84;;;5.27;100.00
51829;BME280;37881;48.024;8.774;2024-02-16T04:52:38;93810.66;;;5.24;100.00
51829;BME280;37881;48.024;8.774;2024-02-16T04:55:06;93809.53;;;5.32;100.00
51829;BME280;37881;48.024;8.774;2024-02-16T04:57:33;93813.44;;;5.38;100.00
51829;BME280;37881;48.024;8.774;2024-02-16T05:00:00;93813.03;;;5.36;100.00
51829;BME280;37881;48.024;8.774;2024-02-16T05:02:27;93810.31;;;5.36;100.00
51829;BME280;37881;48.024;8.774;2024-02-16T05:04:54;93806.75;;;5.14;100.00
51829;BME280;37881;48.024;8.774;2024-02-16T05:07:21;93811.44;;;5.25;100.00
51829;BME280;37881;48.024;8.774;2024-02-16T05:09:48;93819.19;;;5.19;100.00
51829;BME280;37881;48.024;8.774;2024-02-16T05:12:16;93822.69;;;5.23;100.00
51829;BME280;37881;48.024;8.774;2024-02-16T05:14:48;93814.56;;;5.27;100.00
51829;BME280;37881;48.024;8.774;2024-02-16T05:17:16;93820.03;;;5.37;100.00
51829;BME280;37881;48.024;8.774;2024-02-16T05:19:43;93820.41;;;5.25;100.00
51829;BME280;37881;48.024;8.774;2024-02-16T05:22:11;93820.03;;;5.34;100.00
51829;BME280;37881;48.024;8.774;2024-02-16T05:24:37;93829.78;;;5.42;100.00
51829;BME280;37881;48.024;8.774;2024-02-16T05:27:04;93825.47;;;5.41;100.00
51829;BME280;37881;48.024;8.774;2024-02-16T05:29:31;93827.84;;;5.46;100.00
51829;BME280;37881;48.024;8.774;2024-02-16T05:31:58;93830.53;;;5.39;100.00
51829;BME280;37881;48.024;8.774;2024-02-16T05:34:24;93821.19;;;5.33;100.00
51829;BME280;37881;48.024;8.774;2024-02-16T05:36:52;93821.97;;;5.37;100.00
51829;BME280;37881;48.024;8.774;2024-02-16T05:39:19;93833.25;;;5.39;100.00
51829;BME280;37881;48.024;8.774;2024-02-16T05:41:58;93822.81;;;5.52;100.00
51829;BME280;37881;48.024;8.774;2024-02-16T05:44:25;93826.34;;;5.70;100.00
51829;BME280;37881;48.024;8.774;2024-02-16T05:46:51;93828.31;;;5.84;100.00
51829;BME280;37881;48.024;8.774;2024-02-16T05:49:18;93823.66;;;5.95;100.00
51829;BME280;37881;48.024;8.774;2024-02-16T05:51:46;93827.91;;;5.78;100.00
51829;BME280;37881;48.024;8.774;2024-02-16T05:54:33;93831.75;;;5.56;100.00
51829;BME280;37881;48.024;8.774;2024-02-16T05:57:04;93832.13;;;5.51;100.00
51829;BME280;37881;48.024;8.774;2024-02-16T05:59:31;93834.88;;;5.58;100.00
51829;BME280;37881;48.024;8.774;2024-02-16T06:01:57;93836.84;;;5.68;100.00
51829;BME280;37881;48.024;8.774;2024-02-16T06:04:25;93829.84;;;5.78;100.00
51829;BME280;37881;48.024;8.774;2024-02-16T06:06:53;93840.75;;;5.82;100.00
51829;BME280;37881;48.024;8.774;2024-02-16T06:09:21;93841.84;;;5.59;100.00
51829;BME280;37881;48.024;8.774;2024-02-16T06:11:47;93839.19;;;5.70;100.00
51829;BME280;37881;48.024;8.774;2024-02-16T06:14:15;93837.63;;;5.83;100.00
51829;BME280;37881;48.024;8.774;2024-02-16T06:16:46;93840.34;;;5.87;100.00
51829;BME280;37881;48.024;8.774;2024-02-16T06:19:12;93847.75;;;5.86;100.00
51829;BME280;37881;48.024;8.774;2024-02-16T06:21:39;93850.91;;;5.95;100.00
51829;BME280;37881;48.024;8.774;2024-02-16T06:24:06;93850.09;;;5.91;100.00
51829;BME280;37881;48.024;8.774;2024-02-16T06:26:34;93849.31;;;5.91;100.00
51829;BME280;37881;48.024;8.774;2024-02-16T06:29:01;93859.03;;;5.74;100.00
51829;BME280;37881;48.024;8.774;2024-02-16T06:31:27;93855.84;;;5.50;100.00
51829;BME280;37881;48.024;8.774;2024-02-16T06:33:54;93858.94;;;5.49;100.00
51829;BME280;37881;48.024;8.774;2024-02-16T06:36:22;93863.25;;;5.60;100.00
51829;BME280;37881;48.024;8.774;2024-02-16T06:38:49;93860.53;;;5.71;100.00
51829;BME280;37881;48.024;8.774;2024-02-16T06:41:18;93871.09;;;5.91;100.00
51829;BME280;37881;48.024;8.774;2024-02-16T06:43:45;93878.91;;;5.99;100.00
51829;BME280;37881;48.024;8.774;2024-02-16T06:46:11;93874.28;;;6.00;100.00
51829;BME280;37881;48.024;8.774;2024-02-16T06:48:38;93879.72;;;6.11;100.00
51829;BME280;37881;48.024;8.774;2024-02-16T06:51:05;93882.44;;;6.22;100.00
51829;BME280;37881;48.024;8.774;2024-02-16T06:53:36;93891.41;;;6.26;100.00
51829;BME280;37881;48.024;8.774;2024-02-16T06:56:03;93891.41;;;6.33;100.00
51829;BME280;37881;48.024;8.774;2024-02-16T06:58:30;93899.59;;;6.36;100.00
51829;BME280;37881;48.024;8.774;2024-02-16T07:00:57;93891.41;;;6.47;100.00
51829;BME280;37881;48.024;8.774;2024-02-16T07:03:29;93897.28;;;6.60;100.00
51829;BME280;37881;48.024;8.774;2024-02-16T07:05:56;93892.59;;;6.64;100.00
51829;BME280;37881;48.024;8.774;2024-02-16T07:08:23;93896.84;;;6.83;100.00
51829;BME280;37881;48.024;8.774;2024-02-16T07:10:50;93903.06;;;6.91;100.00
51829;BME280;37881;48.024;8.774;2024-02-16T07:13:19;93899.13;;;7.13;100.00
51829;BME280;37881;48.024;8.774;2024-02-16T07:15:45;93901.44;;;7.26;100.00
51829;BME280;37881;48.024;8.774;2024-02-16T07:18:12;93897.53;;;7.27;100.00
51829;BME280;37881;48.024;8.774;2024-02-16T07:20:39;93905.75;;;7.19;100.00
51829;BME280;37881;48.024;8.774;2024-02-16T07:23:06;93899.19;;;6.81;100.00
51829;BME280;37881;48.024;8.774;2024-02-16T07:25:33;93900.75;;;6.75;100.00
51829;BME280;37881;48.024;8.774;2024-02-16T07:28:00;93910.88;;;6.85;100.00
51829;BME280;37881;48.024;8.774;2024-02-16T07:30:27;93908.16;;;6.92;100.00
51829;BME280;37881;48.024;8.774;2024-02-16T07:33:06;93905.78;;;7.12;100.00
51829;BME280;37881;48.024;8.774;2024-02-16T07:35:34;93901.13;;;6.98;100.00
51829;BME280;37881;48.024;8.774;2024-02-16T07:38:02;93909.63;;;7.22;100.00
51829;BME280;37881;48.024;8.774;2024-02-16T07:40:30;93914.28;;;7.32;100.00
51829;BME280;37881;48.024;8.774;2024-02-16T07:43:00;93916.97;;;7.47;100.00
51829;BME280;37881;48.024;8.774;2024-02-16T07:45:27;93920.50;;;7.40;100.00
51829;BME280;37881;48.024;8.774;2024-02-16T07:47:56;93912.72;;;7.31;100.00
51829;BME280;37881;48.024;8.774;2024-02-16T07:50:23;93925.56;;;7.42;100.00
51829;BME280;37881;48.024;8.774;2024-02-16T07:52:50;93925.19;;;7.43;100.00
51829;BME280;37881;48.024;8.774;2024-02-16T07:55:17;93935.25;;;7.64;100.00
51829;BME280;37881;48.024;8.774;2024-02-16T07:57:44;93928.19;;;7.74;100.00
51829;BME280;37881;48.024;8.774;2024-02-16T08:00:12;93932.03;;;7.87;100.00
51829;BME280;37881;48.024;8.774;2024-02-16T08:02:39;93923.75;;;8.05;100.00
51829;BME280;37881;48.024;8.774;2024-02-16T08:05:06;93924.81;;;8.18;100.00
51829;BME280;37881;48.024;8.774;2024-02-16T08:07:34;93927.88;;;8.31;100.00
51829;BME280;37881;48.024;8.774;2024-02-16T08:10:02;93930.16;;;8.40;100.00
51829;BME280;37881;48.024;8.774;2024-02-16T08:12:29;93933.19;;;8.60;100.00
51829;BME280;37881;48.024;8.774;2024-02-16T08:14:57;93932.53;;;8.90;100.00
51829;BME280;37881;48.024;8.774;2024-02-16T08:17:27;93931.63;;;9.08;100.00
51829;BME280;37881;48.024;8.774;2024-02-16T08:19:54;93923.78;;;9.10;100.00
51829;BME280;37881;48.024;8.774;2024-02-16T08:22:22;93934.16;;;8.84;100.00
51829;BME280;37881;48.024;8.774;2024-02-16T08:24:48;93933.16;;;9.09;100.00
51829;BME280;37881;48.024;8.774;2024-02-16T08:27:16;93930.72;;;9.18;100.00
51829;BME280;37881;48.024;8.774;2024-02-16T08:29:43;93936.22;;;9.18;100.00
51829;BME280;37881;48.024;8.774;2024-02-16T08:32:10;93932.41;;;9.05;100.00
51829;BME280;37881;48.024;8.774;2024-02-16T08:34:38;93932.88;;;9.37;100.00
51829;BME280;37881;48.024;8.774;2024-02-16T08:37:05;93937.31;;;9.96;100.00
51829;BME280;37881;48.024;8.774;2024-02-16T08:39:33;93937.84;;;10.15;100.00
51829;BME280;37881;48.024;8.774;2024-02-16T08:42:01;93929.38;;;10.60;100.00
51829;BME280;37881;48.024;8.774;2024-02-16T08:44:28;93929.19;;;10.98;100.00
51829;BME280;37881;48.024;8.774;2024-02-16T08:46:55;93933.50;;;10.17;100.00
51829;BME280;37881;48.024;8.774;2024-02-16T08:49:22;93937.72;;;9.60;100.00
51829;BME280;37881;48.024;8.774;2024-02-16T08:51:49;93946.09;;;9.46;100.00
51829;BME280;37881;48.024;8.774;2024-02-16T08:54:16;93944.94;;;10.12;100.00
51829;BME280;37881;48.024;8.774;2024-02-16T08:56:46;93948.63;;;10.84;100.00
51829;BME280;37881;48.024;8.774;2024-02-16T08:59:12;93944.16;;;11.40;100.00
51829;BME280;37881;48.024;8.774;2024-02-16T09:01:39;93943.94;;;11.95;100.00
51829;BME280;37881;48.024;8.774;2024-02-16T09:04:06;93941.88;;;12.19;100.00
51829;BME280;37881;48.024;8.774;2024-02-16T09:06:33;93953.81;;;12.12;100.00
51829;BME280;37881;48.024;8.774;2024-02-16T09:09:03;93957.81;;;12.28;100.00
51829;BME280;37881;48.024;8.774;2024-02-16T09:11:37;93956.72;;;13.27;100.00
51829;BME280;37881;48.024;8.774;2024-02-16T09:14:04;93955.88;;;13.76;100.00
51829;BME280;37881;48.024;8.774;2024-02-16T09:16:31;93947.09;;;15.51;96.82
51829;BME280;37881;48.024;8.774;2024-02-16T09:18:58;93947.09;;;16.84;86.06
51829;BME280;37881;48.024;8.774;2024-02-16T09:21:26;93954.47;;;17.95;76.06
51829;BME280;37881;48.024;8.774;2024-02-16T09:23:55;93954.91;;;19.01;68.19
51829;BME280;37881;48.024;8.774;2024-02-16T09:26:28;93959.91;;;18.79;61.88
51829;BME280;37881;48.024;8.774;2024-02-16T09:29:00;93961.50;;;16.69;71.89
51829;BME280;37881;48.024;8.774;2024-02-16T09:31:27;93962.66;;;17.12;74.29
51829;BME280;37881;48.024;8.774;2024-02-16T09:33:54;93960.88;;;18.66;62.66
51829;BME280;37881;48.024;8.774;2024-02-16T09:36:21;93956.84;;;20.01;57.58
51829;BME280;37881;48.024;8.774;2024-02-16T09:38:48;93957.75;;;21.56;53.17
51829;BME280;37881;48.024;8.774;2024-02-16T09:41:15;93951.25;;;23.30;46.46
51829;BME280;37881;48.024;8.774;2024-02-16T09:43:43;93954.31;;;22.74;45.76
51829;BME280;37881;48.024;8.774;2024-02-16T09:46:10;93952.69;;;22.62;43.14
51829;BME280;37881;48.024;8.774;2024-02-16T09:48:39;93952.34;;;21.52;45.04
51829;BME280;37881;48.024;8.774;2024-02-16T09:51:07;93948.72;;;22.74;43.76
51829;BME280;37881;48.024;8.774;2024-02-16T09:53:35;93954.84;;;23.37;41.72
51829;BME280;37881;48.024;8.774;2024-02-16T09:56:05;93946.88;;;21.78;42.88
51829;BME280;37881;48.024;8.774;2024-02-16T09:58:31;93955.44;;;20.59;46.43
51829;BME280;37881;48.024;8.774;2024-02-16T10:00:58;93961.22;;;20.17;48.62
51829;BME280;37881;48.024;8.774;2024-02-16T10:06:10;93972.19;;;18.53;54.10
51829;BME280;37881;48.024;8.774;2024-02-16T10:08:48;93967.50;;;19.30;53.42
51829;BME280;37881;48.024;8.774;2024-02-16T10:11:16;93969.97;;;20.63;50.08
51829;BME280;37881;48.024;8.774;2024-02-16T10:14:01;93973.13;;;19.69;49.68
51829;BME280;37881;48.024;8.774;2024-02-16T10:16:30;93977.00;;;18.16;54.27
51829;BME280;37881;48.024;8.774;2024-02-16T10:19:07;93986.84;;;18.54;54.29
51829;BME280;37881;48.024;8.774;2024-02-16T10:21:41;93986.41;;;20.22;51.28
51829;BME280;37881;48.024;8.774;2024-02-16T10:24:11;93983.41;;;20.11;48.55
51829;BME280;37881;48.024;8.774;2024-02-16T10:26:40;93990.47;;;19.73;49.37
51829;BME280;37881;48.024;8.774;2024-02-16T10:29:10;93988.66;;;19.61;50.01
51829;BME280;37881;48.024;8.774;2024-02-16T10:31:37;93996.72;;;17.81;54.54
51829;BME280;37881;48.024;8.774;2024-02-16T10:34:05;93999.63;;;18.88;53.98
51829;BME280;37881;48.024;8.774;2024-02-16T10:36:37;94001.59;;;18.97;52.39
51829;BME280;37881;48.024;8.774;2024-02-16T10:39:06;93999.28;;;20.88;49.62
51829;BME280;37881;48.024;8.774;2024-02-16T10:41:37;93994.09;;;20.96;45.94
51829;BME280;37881;48.024;8.774;2024-02-16T10:44:05;93999.34;;;21.53;43.56
51829;BME280;37881;48.024;8.774;2024-02-16T10:46:33;93993.91;;;20.70;44.94
51829;BME280;37881;48.024;8.774;2024-02-16T10:49:01;93998.44;;;20.28;45.63
51829;BME280;37881;48.024;8.774;2024-02-16T10:51:49;94002.06;;;20.20;46.13
51829;BME280;37881;48.024;8.774;2024-02-16T10:54:22;93996.16;;;19.69;47.45
51829;BME280;37881;48.024;8.774;2024-02-16T10:56:53;93992.94;;;20.19;46.41
51829;BME280;37881;48.024;8.774;2024-02-16T10:59:20;94004.41;;;20.36;46.87
51829;BME280;37881;48.024;8.774;2024-02-16T11:01:47;93993.31;;;21.96;43.66
51829;BME280;37881;48.024;8.774;2024-02-16T11:04:17;93997.72;;;22.23;42.27
51829;BME280;37881;48.024;8.774;2024-02-16T11:07:17;93992.19;;;24.63;39.44
51829;BME280;37881;48.024;8.774;2024-02-16T11:09:46;93990.00;;;25.18;36.04
51829;BME280;37881;48.024;8.774;2024-02-16T11:12:14;93989.91;;;26.14;35.03
51829;BME280;37881;48.024;8.774;2024-02-16T11:14:45;93980.59;;;26.41;34.61
51829;BME280;37881;48.024;8.774;2024-02-16T11:17:15;93985.16;;;25.58;34.98
51829;BME280;37881;48.024;8.774;2024-02-16T11:19:47;93985.50;;;26.88;34.06
51829;BME280;37881;48.024;8.774;2024-02-16T11:22:18;93968.25;;;26.61;33.04
51829;BME280;37881;48.024;8.774;2024-02-16T11:24:48;93971.22;;;27.16;32.76
51829;BME280;37881;48.024;8.774;2024-02-16T11:27:16;93971.44;;;28.09;30.93
51829;BME280;37881;48.024;8.774;2024-02-16T11:29:47;93961.06;;;27.98;31.71
51829;BME280;37881;48.024;8.774;2024-02-16T11:32:15;93966.34;;;28.07;31.59
51829;BME280;37881;48.024;8.774;2024-02-16T11:34:41;93961.53;;;27.12;31.46
51829;BME280;37881;48.024;8.774;2024-02-16T11:37:09;93970.44;;;24.46;35.10
51829;BME280;37881;48.024;8.774;2024-02-16T11:39:36;93964.94;;;24.03;36.06
51829;BME280;37881;48.024;8.774;2024-02-16T11:42:09;93976.53;;;23.79;36.48
51829;BME280;37881;48.024;8.774;2024-02-16T11:44:49;93961.63;;;24.82;36.13
51829;BME280;37881;48.024;8.774;2024-02-16T11:47:19;93973.13;;;23.69;38.02
51829;BME280;37881;48.024;8.774;2024-02-16T11:49:49;93964.69;;;25.74;35.01
51829;BME280;37881;48.024;8.774;2024-02-16T11:52:19;93965.47;;;24.90;36.30
51829;BME280;37881;48.024;8.774;2024-02-16T11:54:46;93964.84;;;23.81;37.90
51829;BME280;37881;48.024;8.774;2024-02-16T11:57:13;93973.19;;;23.75;37.95
51829;BME280;37881;48.024;8.774;2024-02-16T11:59:40;93967.16;;;23.50;38.82
51829;BME280;37881;48.024;8.774;2024-02-16T12:02:07;93969.94;;;23.13;40.13
51829;BME280;37881;48.024;8.774;2024-02-16T12:04:34;93962.91;;;23.23;40.01
51829;BME280;37881;48.024;8.774;2024-02-16T12:07:13;93964.19;;;21.82;42.59
51829;BME280;37881;48.024;8.774;2024-02-16T12:09:41;93952.47;;;21.43;43.10
51829;BME280;37881;48.024;8.774;2024-02-16T12:12:08;93954.09;;;20.99;45.30
51829;BME280;37881;48.024;8.774;2024-02-16T12:14:34;93962.84;;;20.92;45.67
51829;BME280;37881;48.024;8.774;2024-02-16T12:17:02;93962.56;;;21.05;45.41
51829;BME280;37881;48.024;8.774;2024-02-16T12:19:28;93964.59;;;20.35;47.19
51829;BME280;37881;48.024;8.774;2024-02-16T12:21:57;93963.03;;;20.05;48.92
51829;BME280;37881;48.024;8.774;2024-02-16T12:24:24;93964.47;;;20.15;49.33
51829;BME280;37881;48.024;8.774;2024-02-16T12:26:51;93963.75;;;20.44;48.66
51829;BME280;37881;48.024;8.774;2024-02-16T12:29:18;93967.31;;;20.06;49.96
51829;BME280;37881;48.024;8.774;2024-02-16T12:31:46;93968.66;;;19.71;51.57
51829;BME280;37881;48.024;8.774;2024-02-16T12:34:14;93963.81;;;19.24;54.42
51829;BME280;37881;48.024;8.774;2024-02-16T12:36:42;93974.38;;;19.01;55.92
51829;BME280;37881;48.024;8.774;2024-02-16T12:39:15;93980.44;;;19.00;58.21
51829;BME280;37881;48.024;8.774;2024-02-16T12:41:42;93970.56;;;19.32;57.44
51829;BME280;37881;48.024;8.774;2024-02-16T12:44:10;93973.78;;;18.97;58.14
51829;BME280;37881;48.024;8.774;2024-02-16T12:46:37;93979.91;;;19.20;58.57
51829;BME280;37881;48.024;8.774;2024-02-16T12:49:06;93986.78;;;18.91;60.81
51829;BME280;37881;48.024;8.774;2024-02-16T12:51:34;93979.91;;;18.31;62.22
51829;BME280;37881;48.024;8.774;2024-02-16T12:54:01;93976.13;;;18.89;61.01
51829;BME280;37881;48.024;8.774;2024-02-16T12:56:30;93989.81;;;18.41;64.17
51829;BME280;37881;48.024;8.774;2024-02-16T12:58:57;93982.72;;;18.22;65.21
51829;BME280;37881;48.024;8.774;2024-02-16T13:01:27;93983.00;;;18.14;66.45
51829;BME280;37881;48.024;8.774;2024-02-16T13:03:54;93982.66;;;17.75;70.51
51829;BME280;37881;48.024;8.774;2024-02-16T13:06:21;93973.88;;;18.51;68.39
51829;BME280;37881;48.024;8.774;2024-02-16T13:08:53;93977.84;;;18.77;65.47